sensor_id;sensor_type;location;lat;lon;timestamp;P1;durP1;ratioP1;P2;durP2;ratioP2
37891;SDS011;45797;47.466;9.486;2022-11-15T00:00:29;5.53;;;3.10;;
37891;SDS011;45797;47.466;9.486;2022-11-15T00:05:49;6.63;;;3.40;;
37891;SDS011;45797;47.466;9.486;2022-11-15T00:11:17;8.50;;;3.55;;
37891;SDS011;45797;47.466;9.486;2022-11-15T00:16:36;6.93;;;3.22;;
37891;SDS011;45797;47.466;9.486;2022-11-15T00:21:56;5.18;;;2.90;;
37891;SDS011;45797;47.466;9.486;2022-11-15T00:27:15;6.10;;;2.90;;
37891;SDS011;45797;47.466;9.486;2022-11-15T00:32:43;7.55;;;3.17;;
37891;SDS011;45797;47.466;9.486;2022-11-15T00:38:03;4.78;;;2.42;;
37891;SDS011;45797;47.466;9.486;2022-11-15T00:43:24;5.80;;;2.83;;
37891;SDS011;45797;47.466;9.486;2022-11-15T00:48:42;6.97;;;3.15;;
37891;SDS011;45797;47.466;9.486;2022-11-15T00:54:03;5.18;;;3.10;;
37891;SDS011;45797;47.466;9.486;2022-11-15T00:59:22;6.43;;;3.17;;
37891;SDS011;45797;47.466;9.486;2022-11-15T01:04:46;5.90;;;2.90;;
37891;SDS011;45797;47.466;9.486;2022-11-15T01:10:06;7.15;;;3.30;;
37891;SDS011;45797;47.466;9.486;2022-11-15T01:15:25;5.97;;;2.90;;
37891;SDS011;45797;47.466;9.486;2022-11-15T01:20:55;6.65;;;2.92;;
37891;SDS011;45797;47.466;9.486;2022-11-15T01:26:14;6.30;;;2.70;;
37891;SDS011;45797;47.466;9.486;2022-11-15T01:31:34;7.32;;;3.00;;
37891;SDS011;45797;47.466;9.486;2022-11-15T01:37:02;8.07;;;3.53;;
37891;SDS011;45797;47.466;9.486;2022-11-15T01:42:32;7.07;;;3.50;;
37891;SDS011;45797;47.466;9.486;2022-11-15T01:47:52;11.23;;;2.97;;
37891;SDS011;45797;47.466;9.486;2022-11-15T01:53:16;8.10;;;2.97;;
37891;SDS011;45797;47.466;9.486;2022-11-15T01:58:38;5.47;;;2.90;;
37891;SDS011;45797;47.466;9.486;2022-11-15T02:09:47;3.90;;;2.17;;
37891;SDS011;45797;47.466;9.486;2022-11-15T02:15:08;4.45;;;2.13;;
37891;SDS011;45797;47.466;9.486;2022-11-15T02:20:46;5.50;;;2.63;;
37891;SDS011;45797;47.466;9.486;2022-11-15T02:32:27;6.07;;;2.03;;
37891;SDS011;45797;47.466;9.486;2022-11-15T02:43:48;5.25;;;1.90;;
37891;SDS011;45797;47.466;9.486;2022-11-15T02:54:41;3.58;;;1.70;;
37891;SDS011;45797;47.466;9.486;2022-11-15T03:11:03;3.10;;;1.60;;
37891;SDS011;45797;47.466;9.486;2022-11-15T03:16:30;3.83;;;2.10;;
37891;SDS011;45797;47.466;9.486;2022-11-15T03:22:27;3.70;;;1.65;;
37891;SDS011;45797;47.466;9.486;2022-11-15T03:27:57;2.75;;;1.45;;
37891;SDS011;45797;47.466;9.486;2022-11-15T03:33:19;2.78;;;1.30;;
37891;SDS011;45797;47.466;9.486;2022-11-15T03:38:46;3.42;;;1.45;;
37891;SDS011;45797;47.466;9.486;2022-11-15T03:50:02;4.20;;;1.83;;
37891;SDS011;45797;47.466;9.486;2022-11-15T03:55:26;7.20;;;1.85;;
37891;SDS011;45797;47.466;9.486;2022-11-15T04:00:56;3.03;;;1.70;;
37891;SDS011;45797;47.466;9.486;2022-11-15T04:06:17;3.72;;;1.80;;
37891;SDS011;45797;47.466;9.486;2022-11-15T04:11:36;3.65;;;1.88;;
37891;SDS011;45797;47.466;9.486;2022-11-15T04:16:55;4.25;;;1.88;;
37891;SDS011;45797;47.466;9.486;2022-11-15T04:22:23;3.15;;;1.58;;
37891;SDS011;45797;47.466;9.486;2022-11-15T04:28:12;4.30;;;2.40;;
37891;SDS011;45797;47.466;9.486;2022-11-15T04:33:31;3.95;;;1.83;;
37891;SDS011;45797;47.466;9.486;2022-11-15T04:38:51;6.40;;;1.85;;
37891;SDS011;45797;47.466;9.486;2022-11-15T04:44:10;4.38;;;1.83;;
37891;SDS011;45797;47.466;9.486;2022-11-15T04:49:29;6.15;;;1.75;;
37891;SDS011;45797;47.466;9.486;2022-11-15T04:54:49;3.22;;;1.38;;
37891;SDS011;45797;47.466;9.486;2022-11-15T05:00:10;4.00;;;1.88;;
37891;SDS011;45797;47.466;9.486;2022-11-15T05:05:32;5.57;;;2.13;;
37891;SDS011;45797;47.466;9.486;2022-11-15T05:10:51;5.53;;;1.77;;
37891;SDS011;45797;47.466;9.486;2022-11-15T05:16:10;3.75;;;1.70;;
37891;SDS011;45797;47.466;9.486;2022-11-15T05:21:30;2.63;;;1.50;;
37891;SDS011;45797;47.466;9.486;2022-11-15T05:26:50;3.22;;;1.45;;
37891;SDS011;45797;47.466;9.486;2022-11-15T05:32:11;4.15;;;1.75;;
37891;SDS011;45797;47.466;9.486;2022-11-15T05:37:33;3.97;;;1.92;;
37891;SDS011;45797;47.466;9.486;2022-11-15T05:42:52;4.55;;;2.17;;
37891;SDS011;45797;47.466;9.486;2022-11-15T05:48:12;5.28;;;2.00;;
37891;SDS011;45797;47.466;9.486;2022-11-15T05:53:32;3.83;;;2.20;;
37891;SDS011;45797;47.466;9.486;2022-11-15T05:58:53;4.50;;;1.75;;
37891;SDS011;45797;47.466;9.486;2022-11-15T06:04:15;3.85;;;1.83;;
37891;SDS011;45797;47.466;9.486;2022-11-15T06:09:36;4.18;;;2.22;;
37891;SDS011;45797;47.466;9.486;2022-11-15T06:14:56;10.07;;;2.65;;
37891;SDS011;45797;47.466;9.486;2022-11-15T06:20:27;5.82;;;2.75;;
37891;SDS011;45797;47.466;9.486;2022-11-15T06:25:59;7.00;;;3.28;;
37891;SDS011;45797;47.466;9.486;2022-11-15T06:31:18;6.97;;;2.47;;
37891;SDS011;45797;47.466;9.486;2022-11-15T06:36:38;10.15;;;3.85;;
37891;SDS011;45797;47.466;9.486;2022-11-15T06:42:07;6.32;;;2.72;;
37891;SDS011;45797;47.466;9.486;2022-11-15T06:47:28;9.32;;;2.50;;
37891;SDS011;45797;47.466;9.486;2022-11-15T06:52:47;6.72;;;3.10;;
37891;SDS011;45797;47.466;9.486;2022-11-15T06:58:06;6.90;;;3.17;;
37891;SDS011;45797;47.466;9.486;2022-11-15T07:08:49;4.15;;;2.28;;
37891;SDS011;45797;47.466;9.486;2022-11-15T07:14:08;3.58;;;1.75;;
37891;SDS011;45797;47.466;9.486;2022-11-15T07:19:27;7.43;;;2.38;;
37891;SDS011;45797;47.466;9.486;2022-11-15T07:24:46;6.63;;;2.55;;
37891;SDS011;45797;47.466;9.486;2022-11-15T07:30:07;5.25;;;2.70;;
37891;SDS011;45797;47.466;9.486;2022-11-15T07:35:27;6.63;;;2.75;;
37891;SDS011;45797;47.466;9.486;2022-11-15T07:40:47;6.20;;;3.05;;
37891;SDS011;45797;47.466;9.486;2022-11-15T07:46:13;6.57;;;3.13;;
37891;SDS011;45797;47.466;9.486;2022-11-15T07:51:32;7.10;;;3.60;;
37891;SDS011;45797;47.466;9.486;2022-11-15T07:56:51;8.00;;;3.35;;
37891;SDS011;45797;47.466;9.486;2022-11-15T08:02:11;10.57;;;3.63;;
37891;SDS011;45797;47.466;9.486;2022-11-15T08:07:35;17.67;;;3.63;;
37891;SDS011;45797;47.466;9.486;2022-11-15T08:12:57;7.20;;;3.10;;
37891;SDS011;45797;47.466;9.486;2022-11-15T08:18:19;8.43;;;3.58;;
37891;SDS011;45797;47.466;9.486;2022-11-15T08:23:38;6.18;;;2.70;;
37891;SDS011;45797;47.466;9.486;2022-11-15T08:29:08;7.22;;;3.08;;
37891;SDS011;45797;47.466;9.486;2022-11-15T08:34:36;5.65;;;3.03;;
37891;SDS011;45797;47.466;9.486;2022-11-15T08:40:05;7.28;;;3.10;;
37891;SDS011;45797;47.466;9.486;2022-11-15T08:45:25;5.10;;;2.83;;
37891;SDS011;45797;47.466;9.486;2022-11-15T08:50:44;7.43;;;3.25;;
37891;SDS011;45797;47.466;9.486;2022-11-15T08:56:10;5.63;;;3.10;;
37891;SDS011;45797;47.466;9.486;2022-11-15T09:01:32;7.22;;;3.40;;
37891;SDS011;45797;47.466;9.486;2022-11-15T09:12:36;5.10;;;2.55;;
37891;SDS011;45797;47.466;9.486;2022-11-15T09:18:06;5.68;;;3.00;;
37891;SDS011;45797;47.466;9.486;2022-11-15T09:23:25;6.43;;;3.63;;
37891;SDS011;45797;47.466;9.486;2022-11-15T09:28:45;6.70;;;3.33;;
37891;SDS011;45797;47.466;9.486;2022-11-15T09:34:03;5.18;;;3.08;;
37891;SDS011;45797;47.466;9.486;2022-11-15T09:39:23;7.63;;;3.55;;
37891;SDS011;45797;47.466;9.486;2022-11-15T09:50:32;10.63;;;4.22;;
37891;SDS011;45797;47.466;9.486;2022-11-15T09:55:50;9.32;;;4.38;;
37891;SDS011;45797;47.466;9.486;2022-11-15T10:00:59;6.95;;;3.90;;
37891;SDS011;45797;47.466;9.486;2022-11-15T10:06:05;10.48;;;3.97;;
37891;SDS011;45797;47.466;9.486;2022-11-15T10:11:31;11.40;;;4.72;;
37891;SDS011;45797;47.466;9.486;2022-11-15T10:27:23;10.05;;;4.97;;
37891;SDS011;45797;47.466;9.486;2022-11-15T10:32:23;9.95;;;4.57;;
37891;SDS011;45797;47.466;9.486;2022-11-15T10:37:29;13.13;;;4.68;;
37891;SDS011;45797;47.466;9.486;2022-11-15T10:42:32;13.98;;;5.38;;
37891;SDS011;45797;47.466;9.486;2022-11-15T10:47:34;10.15;;;4.65;;
37891;SDS011;45797;47.466;9.486;2022-11-15T10:52:35;11.13;;;5.10;;
37891;SDS011;45797;47.466;9.486;2022-11-15T11:02:45;9.32;;;4.80;;
37891;SDS011;45797;47.466;9.486;2022-11-15T11:08:30;9.48;;;4.47;;
37891;SDS011;45797;47.466;9.486;2022-11-15T11:13:25;8.93;;;4.72;;
37891;SDS011;45797;47.466;9.486;2022-11-15T11:18:38;9.13;;;4.70;;
37891;SDS011;45797;47.466;9.486;2022-11-15T11:50:38;9.95;;;4.50;;
37891;SDS011;45797;47.466;9.486;2022-11-15T11:55:43;9.13;;;4.18;;
37891;SDS011;45797;47.466;9.486;2022-11-15T12:00:47;9.07;;;4.65;;
37891;SDS011;45797;47.466;9.486;2022-11-15T12:05:54;9.35;;;5.00;;
37891;SDS011;45797;47.466;9.486;2022-11-15T12:16:22;9.20;;;4.90;;
37891;SDS011;45797;47.466;9.486;2022-11-15T12:21:53;9.52;;;4.70;;
37891;SDS011;45797;47.466;9.486;2022-11-15T12:32:38;8.55;;;4.32;;
37891;SDS011;45797;47.466;9.486;2022-11-15T12:37:48;8.05;;;4.35;;
37891;SDS011;45797;47.466;9.486;2022-11-15T12:42:59;9.55;;;4.55;;
37891;SDS011;45797;47.466;9.486;2022-11-15T12:53:35;9.48;;;4.80;;
37891;SDS011;45797;47.466;9.486;2022-11-15T12:58:43;13.10;;;5.28;;
37891;SDS011;45797;47.466;9.486;2022-11-15T13:19:45;9.35;;;4.75;;
37891;SDS011;45797;47.466;9.486;2022-11-15T13:24:49;10.02;;;5.20;;
37891;SDS011;45797;47.466;9.486;2022-11-15T13:29:50;8.88;;;4.90;;
37891;SDS011;45797;47.466;9.486;2022-11-15T13:34:52;8.85;;;4.70;;
37891;SDS011;45797;47.466;9.486;2022-11-15T13:39:53;10.55;;;5.65;;
37891;SDS011;45797;47.466;9.486;2022-11-15T13:45:05;10.50;;;5.00;;
37891;SDS011;45797;47.466;9.486;2022-11-15T13:50:13;10.98;;;5.32;;
37891;SDS011;45797;47.466;9.486;2022-11-15T13:55:19;11.23;;;4.85;;
37891;SDS011;45797;47.466;9.486;2022-11-15T14:11:15;8.95;;;4.32;;
37891;SDS011;45797;47.466;9.486;2022-11-15T14:16:21;10.15;;;4.28;;
37891;SDS011;45797;47.466;9.486;2022-11-15T14:27:25;7.95;;;3.78;;
37891;SDS011;45797;47.466;9.486;2022-11-15T14:32:28;7.95;;;3.75;;
37891;SDS011;45797;47.466;9.486;2022-11-15T14:37:45;7.15;;;4.03;;
37891;SDS011;45797;47.466;9.486;2022-11-15T14:42:48;8.68;;;4.90;;
37891;SDS011;45797;47.466;9.486;2022-11-15T14:47:49;7.38;;;4.18;;
37891;SDS011;45797;47.466;9.486;2022-11-15T14:52:57;7.68;;;4.18;;
37891;SDS011;45797;47.466;9.486;2022-11-15T15:03:07;8.75;;;3.47;;
37891;SDS011;45797;47.466;9.486;2022-11-15T15:08:10;10.38;;;3.20;;
37891;SDS011;45797;47.466;9.486;2022-11-15T15:13:18;6.35;;;2.75;;
37891;SDS011;45797;47.466;9.486;2022-11-15T15:18:19;3.47;;;1.90;;
37891;SDS011;45797;47.466;9.486;2022-11-15T15:23:20;4.80;;;2.05;;
37891;SDS011;45797;47.466;9.486;2022-11-15T15:28:22;4.00;;;2.35;;
37891;SDS011;45797;47.466;9.486;2022-11-15T15:33:23;3.33;;;1.65;;
37891;SDS011;45797;47.466;9.486;2022-11-15T15:38:31;3.03;;;1.45;;
37891;SDS011;45797;47.466;9.486;2022-11-15T15:48:36;6.00;;;1.80;;
37891;SDS011;45797;47.466;9.486;2022-11-15T15:53:38;3.65;;;1.50;;
37891;SDS011;45797;47.466;9.486;2022-11-15T15:58:39;3.30;;;1.48;;
37891;SDS011;45797;47.466;9.486;2022-11-15T16:03:46;3.13;;;1.08;;
37891;SDS011;45797;47.466;9.486;2022-11-15T16:08:48;2.50;;;1.08;;
37891;SDS011;45797;47.466;9.486;2022-11-15T16:13:48;3.80;;;2.05;;
37891;SDS011;45797;47.466;9.486;2022-11-15T16:23:55;6.43;;;3.50;;
37891;SDS011;45797;47.466;9.486;2022-11-15T16:28:57;3.97;;;1.90;;
37891;SDS011;45797;47.466;9.486;2022-11-15T16:44:06;4.93;;;2.33;;
37891;SDS011;45797;47.466;9.486;2022-11-15T16:49:11;4.95;;;1.83;;
37891;SDS011;45797;47.466;9.486;2022-11-15T16:54:13;6.32;;;1.60;;
37891;SDS011;45797;47.466;9.486;2022-11-15T16:59:16;5.03;;;1.48;;
37891;SDS011;45797;47.466;9.486;2022-11-15T17:09:23;4.43;;;2.20;;
37891;SDS011;45797;47.466;9.486;2022-11-15T17:14:24;3.28;;;1.67;;
37891;SDS011;45797;47.466;9.486;2022-11-15T17:19:28;3.67;;;1.50;;
37891;SDS011;45797;47.466;9.486;2022-11-15T17:24:28;3.00;;;1.60;;
37891;SDS011;45797;47.466;9.486;2022-11-15T17:29:29;4.57;;;1.95;;
37891;SDS011;45797;47.466;9.486;2022-11-15T17:34:30;3.45;;;1.52;;
37891;SDS011;45797;47.466;9.486;2022-11-15T17:44:34;5.90;;;2.10;;
37891;SDS011;45797;47.466;9.486;2022-11-15T17:49:35;5.65;;;1.77;;
37891;SDS011;45797;47.466;9.486;2022-11-15T17:54:45;5.72;;;2.30;;
37891;SDS011;45797;47.466;9.486;2022-11-15T17:59:46;6.82;;;2.03;;
37891;SDS011;45797;47.466;9.486;2022-11-15T18:09:55;26.17;;;10.73;;
37891;SDS011;45797;47.466;9.486;2022-11-15T18:15:01;33.45;;;12.75;;
37891;SDS011;45797;47.466;9.486;2022-11-15T18:20:03;18.02;;;8.50;;
37891;SDS011;45797;47.466;9.486;2022-11-15T18:25:11;11.35;;;5.45;;
37891;SDS011;45797;47.466;9.486;2022-11-15T18:35:29;11.32;;;4.78;;
37891;SDS011;45797;47.466;9.486;2022-11-15T18:40:29;9.88;;;4.55;;
37891;SDS011;45797;47.466;9.486;2022-11-15T18:45:29;7.82;;;3.53;;
37891;SDS011;45797;47.466;9.486;2022-11-15T18:50:32;11.45;;;3.90;;
37891;SDS011;45797;47.466;9.486;2022-11-15T18:55:42;7.57;;;3.40;;
37891;SDS011;45797;47.466;9.486;2022-11-15T19:00:58;6.63;;;3.50;;
37891;SDS011;45797;47.466;9.486;2022-11-15T19:06:20;10.55;;;5.45;;
37891;SDS011;45797;47.466;9.486;2022-11-15T19:11:26;8.35;;;4.25;;
37891;SDS011;45797;47.466;9.486;2022-11-15T19:16:33;7.70;;;4.20;;
37891;SDS011;45797;47.466;9.486;2022-11-15T19:21:34;8.45;;;3.83;;
37891;SDS011;45797;47.466;9.486;2022-11-15T19:26:35;7.93;;;3.83;;
37891;SDS011;45797;47.466;9.486;2022-11-15T19:31:39;8.85;;;3.63;;
37891;SDS011;45797;47.466;9.486;2022-11-15T19:36:42;11.50;;;4.15;;
37891;SDS011;45797;47.466;9.486;2022-11-15T19:41:45;8.15;;;4.70;;
37891;SDS011;45797;47.466;9.486;2022-11-15T19:46:47;8.07;;;4.38;;
37891;SDS011;45797;47.466;9.486;2022-11-15T19:51:47;8.35;;;4.10;;
37891;SDS011;45797;47.466;9.486;2022-11-15T19:56:49;7.47;;;3.92;;
37891;SDS011;45797;47.466;9.486;2022-11-15T20:02:07;8.38;;;4.13;;
37891;SDS011;45797;47.466;9.486;2022-11-15T20:12:15;6.47;;;3.45;;
37891;SDS011;45797;47.466;9.486;2022-11-15T20:17:16;8.02;;;3.33;;
37891;SDS011;45797;47.466;9.486;2022-11-15T20:22:19;12.00;;;3.92;;
37891;SDS011;45797;47.466;9.486;2022-11-15T20:27:19;7.47;;;4.07;;
37891;SDS011;45797;47.466;9.486;2022-11-15T20:32:29;8.77;;;4.47;;
37891;SDS011;45797;47.466;9.486;2022-11-15T20:37:45;5.97;;;3.15;;
37891;SDS011;45797;47.466;9.486;2022-11-15T20:42:46;8.35;;;3.25;;
37891;SDS011;45797;47.466;9.486;2022-11-15T20:47:47;9.63;;;4.07;;
37891;SDS011;45797;47.466;9.486;2022-11-15T20:52:48;9.85;;;3.40;;
37891;SDS011;45797;47.466;9.486;2022-11-15T20:57:49;6.75;;;2.72;;
37891;SDS011;45797;47.466;9.486;2022-11-15T21:02:49;8.20;;;3.13;;
37891;SDS011;45797;47.466;9.486;2022-11-15T21:07:57;7.35;;;2.40;;
37891;SDS011;45797;47.466;9.486;2022-11-15T21:12:58;6.60;;;3.28;;
37891;SDS011;45797;47.466;9.486;2022-11-15T21:17:59;6.22;;;2.78;;
37891;SDS011;45797;47.466;9.486;2022-11-15T21:28:03;4.65;;;2.42;;
37891;SDS011;45797;47.466;9.486;2022-11-15T21:33:09;5.88;;;2.70;;
37891;SDS011;45797;47.466;9.486;2022-11-15T21:43:15;8.82;;;3.20;;
37891;SDS011;45797;47.466;9.486;2022-11-15T21:48:15;6.85;;;2.92;;
37891;SDS011;45797;47.466;9.486;2022-11-15T21:53:17;4.88;;;3.00;;
37891;SDS011;45797;47.466;9.486;2022-11-15T21:58:19;5.15;;;2.75;;
37891;SDS011;45797;47.466;9.486;2022-11-15T22:03:20;7.55;;;3.35;;
37891;SDS011;45797;47.466;9.486;2022-11-15T22:08:20;6.68;;;2.97;;
37891;SDS011;45797;47.466;9.486;2022-11-15T22:13:31;7.25;;;3.17;;
37891;SDS011;45797;47.466;9.486;2022-11-15T22:23:35;6.78;;;3.17;;
37891;SDS011;45797;47.466;9.486;2022-11-15T22:28:47;6.38;;;2.88;;
37891;SDS011;45797;47.466;9.486;2022-11-15T22:33:53;10.00;;;3.33;;
37891;SDS011;45797;47.466;9.486;2022-11-15T22:39:04;6.03;;;3.20;;
37891;SDS011;45797;47.466;9.486;2022-11-15T22:44:06;7.57;;;3.33;;
37891;SDS011;45797;47.466;9.486;2022-11-15T22:49:07;6.70;;;3.20;;
37891;SDS011;45797;47.466;9.486;2022-11-15T22:54:15;8.13;;;3.50;;
37891;SDS011;45797;47.466;9.486;2022-11-15T22:59:15;7.90;;;3.60;;
37891;SDS011;45797;47.466;9.486;2022-11-15T23:04:16;7.70;;;3.55;;
37891;SDS011;45797;47.466;9.486;2022-11-15T23:09:18;8.45;;;3.65;;
37891;SDS011;45797;47.466;9.486;2022-11-15T23:14:19;7.10;;;3.30;;
37891;SDS011;45797;47.466;9.486;2022-11-15T23:19:21;7.40;;;3.85;;
37891;SDS011;45797;47.466;9.486;2022-11-15T23:29:35;6.70;;;2.95;;
37891;SDS011;45797;47.466;9.486;2022-11-15T23:34:55;6.40;;;3.53;;
37891;SDS011;45797;47.466;9.486;2022-11-15T23:50:07;4.03;;;2.53;;
37891;SDS011;45797;47.466;9.486;2022-11-15T23:55:08;4.85;;;2.38;;
